Time;durP1;ratioP1;P1;durP2;ratioP2;P2;SDS_P1;SDS_P2;PMS_P1;PMS_P2;Temp;Humidity;BMP_temperature;BMP_pressure;BME280_temperature;BME280_humidity;BME280_pressure;Samples;Min_cycle;Max_cycle;Signal;HPM_P1;HPM_P2
2023/04/05 00:01:36;;;;;;;1.60;1.40;;;3.30;98.20;;;;;;5008385;28;20514;-74
2023/04/05 00:04:04;;;;;;;1.53;1.40;;;3.20;98.20;;;;;;5011103;28;20455;-75
2023/04/05 00:06:31;;;;;;;1.57;1.40;;;3.20;98.20;;;;;;5010718;28;20471;-75
2023/04/05 00:09:02;;;;;;;1.50;1.40;;;3.20;98.20;;;;;;5011938;28;20549;-75
2023/04/05 00:11:30;;;;;;;1.60;1.50;;;3.10;98.20;;;;;;5010256;28;20482;-75
2023/04/05 00:14:00;;;;;;;1.60;1.50;;;3.10;98.20;;;;;;5010842;28;20462;-75
2023/04/05 00:16:27;;;;;;;1.60;1.50;;;3.10;98.20;;;;;;5010787;28;21024;-75
2023/04/05 00:18:55;;;;;;;1.60;1.50;;;3.10;98.20;;;;;;5011121;28;20494;-75
2023/04/05 00:21:23;;;;;;;1.60;1.50;;;3.10;98.20;;;;;;5010287;28;20484;-75
2023/04/05 00:23:52;;;;;;;1.70;1.60;;;3.10;98.20;;;;;;5022911;28;20486;-75
2023/04/05 00:26:21;;;;;;;1.60;1.50;;;3.10;98.20;;;;;;5012683;28;20476;-75
2023/04/05 00:28:48;;;;;;;1.60;1.50;;;3.00;98.20;;;;;;5013425;28;20490;-75
2023/04/05 00:31:15;;;;;;;1.60;1.50;;;3.00;98.20;;;;;;5015672;28;20883;-74
2023/04/05 00:33:41;;;;;;;1.60;1.50;;;3.00;98.20;;;;;;5015264;28;20890;-75
2023/04/05 00:36:10;;;;;;;1.60;1.50;;;3.00;98.20;;;;;;5015705;28;20480;-74
2023/04/05 00:38:37;;;;;;;1.60;1.50;;;3.00;98.20;;;;;;5012605;28;20514;-74
2023/04/05 00:41:03;;;;;;;1.60;1.50;;;3.10;98.20;;;;;;5015151;28;20490;-74
2023/04/05 00:43:31;;;;;;;1.60;1.50;;;3.10;98.20;;;;;;5010004;28;20460;-74
2023/04/05 00:45:59;;;;;;;1.60;1.50;;;3.10;98.20;;;;;;5016903;28;20463;-74
2023/04/05 00:48:25;;;;;;;1.50;1.40;;;3.10;98.20;;;;;;5009538;28;20566;-75
2023/04/05 00:50:52;;;;;;;1.60;1.50;;;3.10;98.20;;;;;;5018816;28;20514;-74
2023/04/05 00:53:20;;;;;;;1.70;1.60;;;3.10;98.20;;;;;;5008502;28;20467;-75
2023/04/05 00:55:48;;;;;;;1.57;1.43;;;3.10;98.20;;;;;;5027099;28;20459;-75
2023/04/05 00:58:16;;;;;;;1.60;1.50;;;3.10;98.20;;;;;;5013113;28;20483;-75
2023/04/05 01:00:52;;;;;;;1.57;1.40;;;3.10;98.20;;;;;;5028511;28;21239;-75
2023/04/05 01:03:24;;;;;;;1.53;1.40;;;3.10;98.20;;;;;;5011625;28;20543;-74
2023/04/05 01:05:59;;;;;;;1.60;1.50;;;3.20;98.20;;;;;;5018302;28;21073;-76
2023/04/05 01:08:32;;;;;;;1.60;1.50;;;3.20;98.20;;;;;;5025655;28;20874;-76
2023/04/05 01:11:03;;;;;;;1.60;1.50;;;3.20;98.20;;;;;;5016911;28;20483;-74
2023/04/05 01:13:30;;;;;;;1.60;1.50;;;3.20;98.20;;;;;;5022447;28;20467;-76
2023/04/05 01:15:58;;;;;;;1.60;1.50;;;3.20;98.20;;;;;;5017724;28;20969;-76
2023/04/05 01:18:25;;;;;;;1.60;1.50;;;3.20;98.20;;;;;;5012007;28;20456;-75
2023/04/05 01:20:57;;;;;;;1.60;1.50;;;3.30;98.20;;;;;;5023738;23;20511;-74
2023/04/05 01:23:39;;;;;;;1.60;1.50;;;3.30;98.20;;;;;;5001442;28;20751;-74
2023/04/05 01:26:33;;;;;;;1.60;1.50;;;3.30;98.20;;;;;;4997132;28;20464;-74
2023/04/05 01:29:29;;;;;;;1.60;1.50;;;3.30;98.20;;;;;;5005016;28;20487;-74
2023/04/05 01:32:04;;;;;;;1.60;1.50;;;3.30;98.20;;;;;;5006984;28;21004;-74
2023/04/05 01:34:38;;;;;;;1.50;1.40;;;3.30;98.20;;;;;;5015060;28;20936;-74
2023/04/05 01:37:08;;;;;;;1.60;1.50;;;3.40;98.20;;;;;;5019056;28;20481;-74
2023/04/05 01:39:36;;;;;;;1.80;1.70;;;3.40;98.20;;;;;;5025481;28;20482;-75
2023/04/05 01:42:03;;;;;;;1.53;1.40;;;3.40;98.20;;;;;;5024934;28;20951;-75
2023/04/05 01:44:30;;;;;;;1.60;1.50;;;3.40;98.20;;;;;;5037830;28;20551;-75
2023/04/05 01:46:58;;;;;;;1.60;1.50;;;3.50;98.20;;;;;;5042084;28;20493;-74
2023/04/05 01:49:25;;;;;;;1.53;1.40;;;3.40;98.20;;;;;;5054104;28;20832;-75
2023/04/05 01:51:52;;;;;;;1.53;1.43;;;3.50;98.20;;;;;;5032548;28;20601;-75
2023/04/05 01:54:19;;;;;;;1.60;1.50;;;3.50;98.20;;;;;;5052452;28;20459;-74
2023/04/05 01:56:46;;;;;;;1.60;1.50;;;3.50;98.20;;;;;;5040502;28;20485;-73
2023/04/05 01:59:12;;;;;;;1.57;1.40;;;3.50;98.20;;;;;;5046402;28;20474;-73
2023/04/05 02:01:39;;;;;;;1.57;1.47;;;3.50;98.20;;;;;;5021474;28;20490;-75
2023/04/05 02:04:07;;;;;;;1.60;1.50;;;3.50;98.20;;;;;;5044136;28;20471;-75
2023/04/05 02:06:34;;;;;;;1.60;1.50;;;3.50;98.20;;;;;;5031891;28;20481;-75
2023/04/05 02:09:01;;;;;;;1.60;1.50;;;3.50;98.20;;;;;;5057045;28;20478;-75
2023/04/05 02:11:28;;;;;;;1.60;1.50;;;3.60;98.20;;;;;;5032510;28;20486;-75
2023/04/05 02:13:55;;;;;;;1.53;1.40;;;3.60;98.20;;;;;;5039016;28;20864;-75
2023/04/05 02:16:22;;;;;;;1.53;1.40;;;3.60;98.20;;;;;;5022993;28;20523;-75
2023/04/05 02:18:49;;;;;;;1.50;1.40;;;3.60;98.20;;;;;;5051237;28;20907;-75
2023/04/05 02:21:17;;;;;;;1.60;1.50;;;3.60;98.20;;;;;;5036308;28;20656;-74
2023/04/05 02:23:44;;;;;;;1.60;1.50;;;3.60;98.20;;;;;;5058975;28;20462;-74
2023/04/05 02:26:11;;;;;;;1.53;1.40;;;3.60;98.20;;;;;;5036189;28;20556;-75
2023/04/05 02:28:38;;;;;;;1.57;1.40;;;3.60;98.20;;;;;;5060001;28;20836;-75
2023/04/05 02:31:09;;;;;;;1.60;1.43;;;3.60;98.20;;;;;;5030571;28;20489;-75
2023/04/05 02:33:36;;;;;;;1.53;1.40;;;3.60;98.20;;;;;;5053368;28;20869;-75
2023/04/05 02:36:05;;;;;;;1.57;1.40;;;3.60;98.20;;;;;;5028845;28;20486;-75
2023/04/05 02:38:33;;;;;;;1.53;1.40;;;3.50;98.20;;;;;;5035394;28;20467;-75
2023/04/05 02:41:00;;;;;;;1.60;1.50;;;3.50;98.20;;;;;;5010466;28;20486;-75
2023/04/05 02:43:27;;;;;;;1.53;1.40;;;3.50;98.20;;;;;;5022395;28;20467;-75
2023/04/05 02:45:54;;;;;;;1.57;1.40;;;3.50;98.20;;;;;;4996446;28;20474;-74
2023/04/05 02:48:21;;;;;;;1.60;1.50;;;3.50;98.20;;;;;;5018936;28;20475;-75
2023/04/05 02:50:48;;;;;;;1.60;1.50;;;3.50;98.20;;;;;;5005797;28;20991;-74
2023/04/05 02:53:15;;;;;;;1.60;1.50;;;3.40;98.20;;;;;;5013552;28;20797;-74
2023/04/05 02:55:43;;;;;;;1.50;1.40;;;3.40;98.20;;;;;;5010993;28;20467;-75
2023/04/05 02:58:10;;;;;;;1.53;1.40;;;3.30;98.20;;;;;;5008823;28;20492;-74
2023/04/05 03:00:36;;;;;;;1.53;1.40;;;3.30;98.20;;;;;;5007603;28;20476;-74
2023/04/05 03:03:03;;;;;;;3.00;2.80;;;3.20;98.20;;;;;;5022758;28;20493;-74
2023/04/05 03:05:30;;;;;;;1.60;1.40;;;3.10;98.20;;;;;;5026448;28;20522;-74
2023/04/05 03:07:58;;;;;;;1.60;1.50;;;3.00;98.20;;;;;;5024117;28;20878;-74
2023/04/05 03:10:27;;;;;;;1.60;1.47;;;3.00;98.20;;;;;;5023679;28;20550;-74
2023/04/05 03:12:56;;;;;;;1.70;1.60;;;3.00;98.20;;;;;;5025070;28;20509;-74
2023/04/05 03:15:22;;;;;;;1.63;1.53;;;2.90;98.20;;;;;;5028494;28;20467;-74
2023/04/05 03:17:49;;;;;;;1.60;1.50;;;2.80;98.20;;;;;;5019353;28;20490;-74
2023/04/05 03:20:16;;;;;;;1.60;1.40;;;2.80;98.20;;;;;;5022586;28;20747;-74
2023/04/05 03:22:42;;;;;;;1.60;1.50;;;2.70;98.20;;;;;;5025296;28;20489;-74
2023/04/05 03:25:10;;;;;;;1.60;1.50;;;2.60;98.20;;;;;;5033476;28;20460;-74
2023/04/05 03:27:37;;;;;;;1.60;1.50;;;2.60;98.20;;;;;;5024889;28;20482;-74
2023/04/05 03:30:07;;;;;;;1.57;1.40;;;2.60;98.20;;;;;;5020386;28;20484;-73
2023/04/05 03:32:33;;;;;;;1.70;1.60;;;2.50;98.20;;;;;;5025003;28;20921;-74
2023/04/05 03:35:00;;;;;;;1.70;1.60;;;2.50;98.20;;;;;;5026203;28;20458;-74
2023/04/05 03:37:27;;;;;;;1.60;1.50;;;2.50;98.20;;;;;;5011645;28;20598;-73
2023/04/05 03:39:53;;;;;;;1.70;1.60;;;2.40;98.20;;;;;;5008780;28;20534;-73
2023/04/05 03:42:20;;;;;;;1.60;1.50;;;2.40;98.20;;;;;;4988303;28;20975;-74
2023/04/05 03:44:49;;;;;;;1.50;1.40;;;2.40;98.20;;;;;;5017701;28;20459;-74
2023/04/05 03:47:18;;;;;;;1.70;1.60;;;2.30;98.20;;;;;;5026974;28;20532;-74
2023/04/05 03:49:45;;;;;;;1.70;1.60;;;2.30;98.20;;;;;;5027479;28;20990;-74
2023/04/05 03:52:12;;;;;;;1.70;1.60;;;2.30;98.20;;;;;;5010129;28;20554;-73
2023/04/05 03:54:39;;;;;;;1.70;1.60;;;2.20;98.20;;;;;;5023963;28;20466;-73
2023/04/05 03:57:06;;;;;;;1.60;1.50;;;2.20;98.20;;;;;;5011098;28;20822;-73
2023/04/05 03:59:33;;;;;;;1.60;1.50;;;2.20;98.20;;;;;;5024665;28;20451;-72
2023/04/05 04:02:00;;;;;;;1.73;1.63;;;2.20;98.20;;;;;;5012657;28;20556;-73
2023/04/05 04:04:28;;;;;;;1.70;1.60;;;2.20;98.20;;;;;;5024585;28;20459;-73
2023/04/05 04:06:56;;;;;;;1.60;1.50;;;2.20;98.20;;;;;;5022850;28;21032;-73
2023/04/05 04:09:23;;;;;;;1.60;1.50;;;2.10;98.20;;;;;;5029325;28;21054;-73
2023/04/05 04:11:50;;;;;;;1.70;1.60;;;2.10;98.20;;;;;;5015643;28;20475;-73
2023/04/05 04:14:17;;;;;;;1.70;1.60;;;2.10;98.20;;;;;;5024351;28;20470;-73
2023/04/05 04:16:43;;;;;;;1.70;1.60;;;2.00;98.20;;;;;;5016680;28;20491;-73
2023/04/05 04:19:10;;;;;;;1.67;1.57;;;2.00;98.20;;;;;;5023346;28;20459;-73
2023/04/05 04:21:38;;;;;;;1.60;1.50;;;2.00;98.20;;;;;;5022961;28;20504;-73
2023/04/05 04:24:06;;;;;;;1.83;1.73;;;2.00;98.20;;;;;;5032893;28;20574;-72
2023/04/05 04:26:36;;;;;;;1.57;1.47;;;1.90;98.20;;;;;;5016681;28;20483;-73
2023/04/05 04:29:05;;;;;;;1.70;1.60;;;1.90;98.20;;;;;;5024922;28;20582;-72
2023/04/05 04:31:32;;;;;;;1.60;1.50;;;1.90;98.20;;;;;;5014799;28;20491;-72
2023/04/05 04:34:01;;;;;;;1.80;1.70;;;1.80;98.20;;;;;;5020575;28;20469;-73
2023/04/05 04:36:34;;;;;;;1.60;1.50;;;1.80;98.20;;;;;;5016834;28;20528;-73
2023/04/05 04:39:05;;;;;;;1.73;1.63;;;1.80;98.20;;;;;;5033049;28;20551;-73
2023/04/05 04:41:32;;;;;;;1.70;1.60;;;1.80;98.20;;;;;;5015596;28;20507;-73
2023/04/05 04:44:01;;;;;;;1.60;1.50;;;1.70;98.20;;;;;;5021703;28;20711;-73
2023/04/05 04:46:29;;;;;;;1.70;1.60;;;1.70;98.20;;;;;;5014969;28;20467;-73
2023/04/05 04:48:57;;;;;;;1.70;1.60;;;1.70;98.20;;;;;;5023300;28;20838;-73
2023/04/05 04:51:24;;;;;;;1.60;1.50;;;1.70;98.20;;;;;;5017220;28;20483;-73
2023/04/05 04:53:51;;;;;;;1.70;1.60;;;1.60;98.20;;;;;;5023545;28;20517;-73
2023/04/05 04:56:20;;;;;;;1.70;1.60;;;1.60;98.20;;;;;;5015880;28;20480;-74
2023/04/05 04:58:46;;;;;;;2.00;1.90;;;1.60;98.20;;;;;;5019757;28;20459;-73
2023/04/05 05:01:13;;;;;;;1.60;1.50;;;1.60;98.20;;;;;;5012206;28;20478;-74
2023/04/05 05:03:40;;;;;;;1.60;1.50;;;1.50;98.20;;;;;;5021162;28;21028;-74
2023/04/05 05:06:07;;;;;;;1.70;1.60;;;1.50;98.20;;;;;;5015030;28;20485;-77
2023/04/05 05:08:36;;;;;;;1.70;1.60;;;1.50;98.20;;;;;;5022579;28;20473;-75
2023/04/05 05:11:06;;;;;;;1.80;1.70;;;1.40;98.20;;;;;;5019150;28;20586;-77
2023/04/05 05:13:35;;;;;;;1.63;1.53;;;1.40;98.20;;;;;;5034765;28;20463;-76
2023/04/05 05:16:04;;;;;;;1.70;1.60;;;1.40;98.20;;;;;;5017408;28;20499;-75
2023/04/05 05:18:31;;;;;;;1.70;1.60;;;1.40;98.20;;;;;;5021083;28;20470;-80
2023/04/05 05:20:58;;;;;;;1.80;1.70;;;1.40;98.20;;;;;;5019922;28;20496;-74
2023/04/05 05:23:25;;;;;;;1.70;1.60;;;1.40;98.20;;;;;;5034075;28;20470;-75
2023/04/05 05:25:57;;;;;;;1.67;1.57;;;1.40;98.20;;;;;;5019993;28;20550;-75
2023/04/05 05:28:25;;;;;;;1.70;1.60;;;1.40;98.20;;;;;;5025418;28;20496;-75
2023/04/05 05:30:53;;;;;;;1.60;1.50;;;1.50;98.20;;;;;;5019484;28;20514;-75
2023/04/05 05:33:20;;;;;;;1.60;1.50;;;1.50;98.20;;;;;;5026077;28;20550;-74
2023/04/05 05:35:48;;;;;;;1.70;1.60;;;1.50;98.20;;;;;;5029133;28;20470;-76
2023/04/05 05:38:15;;;;;;;1.60;1.50;;;1.50;98.20;;;;;;5019247;28;20553;-74
2023/04/05 05:40:42;;;;;;;1.70;1.60;;;1.50;98.20;;;;;;5030126;28;20478;-74
2023/04/05 05:43:10;;;;;;;1.70;1.60;;;1.50;98.20;;;;;;5027694;28;21028;-76
2023/04/05 05:45:37;;;;;;;1.70;1.60;;;1.60;98.20;;;;;;5029696;28;20966;-75
2023/04/05 05:48:05;;;;;;;1.60;1.50;;;1.70;98.20;;;;;;5027683;28;20852;-75
2023/04/05 05:50:32;;;;;;;1.60;1.50;;;1.80;98.20;;;;;;5029188;28;20491;-74
2023/04/05 05:52:59;;;;;;;1.80;1.70;;;1.80;98.20;;;;;;5031544;28;20479;-77
2023/04/05 05:55:26;;;;;;;1.90;1.80;;;1.90;98.20;;;;;;5030361;28;20885;-74
2023/04/05 05:57:54;;;;;;;1.60;1.50;;;1.90;98.20;;;;;;5030144;28;20497;-77
2023/04/05 06:00:21;;;;;;;1.70;1.60;;;2.00;98.20;;;;;;5029872;28;20494;-79
2023/04/05 06:02:49;;;;;;;1.67;1.57;;;2.20;98.20;;;;;;5027459;28;20506;-79
2023/04/05 06:05:17;;;;;;;1.70;1.60;;;2.40;98.20;;;;;;5029879;28;20533;-76
2023/04/05 06:07:45;;;;;;;1.60;1.50;;;2.60;98.20;;;;;;5025079;28;20482;-76
2023/04/05 06:10:12;;;;;;;1.60;1.50;;;2.80;98.20;;;;;;5028584;28;21775;-74
2023/04/05 06:12:39;;;;;;;1.60;1.50;;;3.10;98.20;;;;;;5027422;28;20475;-75
2023/04/05 06:15:07;;;;;;;1.60;1.50;;;3.30;98.20;;;;;;5030664;28;20520;-75
2023/04/05 06:17:40;;;;;;;1.60;1.50;;;3.60;98.20;;;;;;5028771;28;20577;-74
2023/04/05 06:20:09;;;;;;;1.60;1.50;;;3.90;98.20;;;;;;5027018;28;20487;-76
2023/04/05 06:22:39;;;;;;;1.60;1.50;;;4.10;98.20;;;;;;5027725;28;20478;-75
2023/04/05 06:25:07;;;;;;;1.60;1.50;;;4.30;98.20;;;;;;5028455;28;20459;-75
2023/04/05 06:27:34;;;;;;;1.57;1.40;;;4.50;97.70;;;;;;5028833;28;20544;-79
2023/04/05 06:30:01;;;;;;;1.50;1.40;;;4.60;96.50;;;;;;5029082;28;20863;-76
2023/04/05 06:32:28;;;;;;;1.60;1.40;;;4.70;95.90;;;;;;5028182;28;20478;-75
2023/04/05 06:34:54;;;;;;;1.70;1.60;;;4.80;95.40;;;;;;5029599;28;20466;-75
2023/04/05 06:37:21;;;;;;;1.53;1.40;;;5.00;95.10;;;;;;5029091;28;20470;-80
2023/04/05 06:39:50;;;;;;;1.60;1.50;;;5.20;94.40;;;;;;5028195;28;20807;-75
2023/04/05 06:42:17;;;;;;;1.57;1.40;;;5.40;94.20;;;;;;5015522;28;20518;-76
2023/04/05 06:44:49;;;;;;;1.53;1.40;;;5.50;92.80;;;;;;5033486;28;20463;-77
2023/04/05 06:47:16;;;;;;;1.57;1.30;;;5.60;92.60;;;;;;5027152;28;21030;-77
2023/04/05 06:49:43;;;;;;;1.57;1.30;;;5.80;92.30;;;;;;5031916;28;20475;-75
2023/04/05 06:52:10;;;;;;;1.57;1.33;;;5.90;91.30;;;;;;5022495;28;20541;-75
2023/04/05 06:54:38;;;;;;;1.50;1.30;;;6.10;91.60;;;;;;5031356;28;20459;-76
2023/04/05 06:57:06;;;;;;;1.50;1.40;;;6.30;91.10;;;;;;5023139;28;20529;-76
2023/04/05 06:59:33;;;;;;;1.50;1.30;;;6.50;89.50;;;;;;5032441;28;20568;-77
2023/04/05 07:02:00;;;;;;;1.50;1.30;;;6.70;88.80;;;;;;5019197;28;20633;-76
2023/04/05 07:04:31;;;;;;;1.53;1.30;;;6.80;88.70;;;;;;5030783;28;20466;-78
2023/04/05 07:07:00;;;;;;;1.50;1.30;;;6.90;87.00;;;;;;5025275;28;20459;-74
2023/04/05 07:09:29;;;;;;;1.50;1.30;;;7.00;86.90;;;;;;5027526;28;20466;-77
2023/04/05 07:11:56;;;;;;;1.50;1.40;;;7.10;86.30;;;;;;5028258;28;20490;-76
2023/04/05 07:14:24;;;;;;;1.50;1.30;;;7.20;86.20;;;;;;5022411;28;20984;-75
2023/04/05 07:16:52;;;;;;;1.50;1.30;;;7.20;85.80;;;;;;5030368;28;20463;-76
2023/04/05 07:19:19;;;;;;;1.50;1.30;;;7.20;86.40;;;;;;5013182;28;20538;-76
2023/04/05 07:21:46;;;;;;;1.57;1.40;;;7.40;86.10;;;;;;5017214;28;20831;-75
2023/04/05 07:24:13;;;;;;;1.50;1.23;;;7.60;86.40;;;;;;5029466;28;20922;-78
2023/04/05 07:26:40;;;;;;;1.50;1.20;;;7.70;85.60;;;;;;5022825;28;21230;-74
2023/04/05 07:29:07;;;;;;;1.50;1.20;;;7.90;83.60;;;;;;5033896;28;20462;-76
2023/04/05 07:31:35;;;;;;;1.50;1.20;;;7.80;83.60;;;;;;5014879;28;20491;-76
2023/04/05 07:34:02;;;;;;;1.50;1.30;;;7.90;84.10;;;;;;5018849;28;20490;-76
2023/04/05 07:36:30;;;;;;;1.50;1.20;;;8.00;83.60;;;;;;5025215;28;20478;-78
2023/04/05 07:38:57;;;;;;;1.50;1.20;;;8.10;83.70;;;;;;5033283;28;20521;-75
2023/04/05 07:41:25;;;;;;;1.50;1.30;;;8.30;82.50;;;;;;5009887;28;20483;-76
2023/04/05 07:43:52;;;;;;;1.50;1.20;;;8.50;83.60;;;;;;5020724;28;20466;-76
2023/04/05 07:46:19;;;;;;;1.50;1.20;;;8.60;82.40;;;;;;5015828;28;20474;-75
2023/04/05 07:48:48;;;;;;;1.50;1.30;;;8.70;82.10;;;;;;5022302;28;20597;-73
2023/04/05 07:51:15;;;;;;;1.50;1.20;;;8.70;81.40;;;;;;5015273;28;20915;-73
2023/04/05 07:53:42;;;;;;;1.50;1.20;;;8.70;81.50;;;;;;5031921;28;20558;-75
2023/04/05 07:56:10;;;;;;;2.43;2.23;;;8.90;81.70;;;;;;5017128;28;20485;-74
2023/04/05 07:58:39;;;;;;;1.50;1.20;;;9.10;80.50;;;;;;5028860;28;20966;-74
2023/04/05 08:01:07;;;;;;;1.50;1.27;;;9.20;80.80;;;;;;5014078;28;21272;-75
2023/04/05 08:03:35;;;;;;;1.50;1.20;;;9.40;80.10;;;;;;5024927;28;20633;-75
2023/04/05 08:06:11;;;;;;;1.50;1.20;;;9.60;80.50;;;;;;5016969;28;20466;-75
2023/04/05 08:08:38;;;;;;;1.50;1.20;;;9.70;80.30;;;;;;5028009;28;20485;-75
2023/04/05 08:11:05;;;;;;;1.50;1.10;;;9.90;79.80;;;;;;5016695;28;20494;-75
2023/04/05 08:13:32;;;;;;;1.50;1.10;;;10.10;79.70;;;;;;5027491;28;20475;-75
2023/04/05 08:16:00;;;;;;;1.50;1.20;;;10.30;79.40;;;;;;5013979;28;20912;-75
2023/04/05 08:18:26;;;;;;;1.50;1.10;;;10.60;79.60;;;;;;5019387;28;20471;-74
2023/04/05 08:20:54;;;;;;;1.50;1.10;;;10.90;78.60;;;;;;5014884;28;20954;-75
2023/04/05 08:23:23;;;;;;;1.50;1.10;;;11.20;77.60;;;;;;5015921;28;20855;-75
2023/04/05 08:25:50;;;;;;;1.50;1.10;;;11.40;77.60;;;;;;5014077;28;20455;-75
2023/04/05 08:28:17;;;;;;;1.50;1.10;;;11.60;77.10;;;;;;5018374;28;20839;-74
2023/04/05 08:30:44;;;;;;;1.50;1.00;;;11.80;76.70;;;;;;5023515;28;20487;-75
2023/04/05 08:33:11;;;;;;;1.50;1.00;;;12.00;75.50;;;;;;5043407;23;20509;-76
2023/04/05 08:35:39;;;;;;;1.60;1.30;;;12.20;74.30;;;;;;5028597;28;20968;-74
2023/04/05 08:38:06;;;;;;;1.50;1.00;;;12.30;74.80;;;;;;5015162;28;20492;-78
2023/04/05 08:40:39;;;;;;;1.50;1.10;;;12.40;75.50;;;;;;5031480;28;20457;-77
2023/04/05 08:43:13;;;;;;;1.50;1.10;;;12.50;73.70;;;;;;5015875;28;20479;-80
2023/04/05 08:45:47;;;;;;;1.50;1.00;;;12.50;73.70;;;;;;5020604;28;20964;-75
2023/04/05 08:48:14;;;;;;;1.50;1.00;;;12.50;74.40;;;;;;5005473;28;20592;-75
2023/04/05 08:50:41;;;;;;;1.50;1.00;;;12.40;72.90;;;;;;5012815;28;20452;-76
2023/04/05 08:53:09;;;;;;;8.93;3.83;;;12.40;73.70;;;;;;5006850;28;20491;-76
2023/04/05 08:55:39;;;;;;;1.50;1.00;;;12.60;74.60;;;;;;5010145;28;20479;-76
2023/04/05 08:58:12;;;;;;;1.47;1.00;;;12.70;73.10;;;;;;5006469;28;20575;-76
2023/04/05 09:00:40;;;;;;;1.47;1.00;;;12.80;72.50;;;;;;5002836;28;20959;-77
2023/04/05 09:03:12;;;;;;;1.60;1.40;;;12.80;72.50;;;;;;5037080;28;20494;-77
2023/04/05 09:05:41;;;;;;;1.47;1.00;;;12.90;72.60;;;;;;5027221;28;20518;-77
2023/04/05 09:08:08;;;;;;;1.50;1.10;;;13.00;72.90;;;;;;5032189;28;20545;-79
2023/04/05 09:10:35;;;;;;;1.47;1.00;;;13.20;72.20;;;;;;5025007;28;20463;-76
2023/04/05 09:13:03;;;;;;;1.50;1.00;;;13.20;71.70;;;;;;5018159;28;20521;-77
2023/04/05 09:15:30;;;;;;;1.43;1.00;;;13.30;72.30;;;;;;5022280;28;20966;-75
2023/04/05 09:17:57;;;;;;;1.47;0.90;;;13.40;71.80;;;;;;5028869;28;20483;-77
2023/04/05 09:20:24;;;;;;;1.90;1.60;;;13.70;73.20;;;;;;5025011;28;20467;-75
2023/04/05 09:22:51;;;;;;;1.50;1.00;;;13.80;70.90;;;;;;5023201;28;20471;-76
2023/04/05 09:25:35;;;;;;;1.50;1.00;;;14.00;69.60;;;;;;5023556;28;20836;-76
2023/04/05 09:28:03;;;;;;;1.50;1.00;;;13.90;70.10;;;;;;5030594;28;20486;-78
2023/04/05 09:30:31;;;;;;;1.50;0.90;;;14.10;71.10;;;;;;5024387;28;20456;-77
2023/04/05 09:32:59;;;;;;;1.47;0.90;;;14.20;69.00;;;;;;5027048;28;20513;-79
2023/04/05 09:35:27;;;;;;;1.50;1.00;;;14.40;70.30;;;;;;5025461;28;20456;-77
2023/04/05 09:38:11;;;;;;;1.50;0.90;;;14.50;69.50;;;;;;5020243;28;20483;-74
2023/04/05 09:40:42;;;;;;;1.50;1.03;;;14.20;69.30;;;;;;5020056;28;20459;-73
2023/04/05 09:43:35;;;;;;;1.50;0.90;;;14.10;70.30;;;;;;5031562;28;20495;-75
2023/04/05 09:46:02;;;;;;;1.50;0.90;;;14.00;69.90;;;;;;5012089;28;20467;-75
2023/04/05 09:48:46;;;;;;;1.50;1.00;;;14.00;69.40;;;;;;5030794;28;20456;-76
2023/04/05 09:51:14;;;;;;;1.40;1.00;;;14.40;71.20;;;;;;5011630;28;20908;-75
2023/04/05 09:53:59;;;;;;;1.40;0.90;;;14.70;70.80;;;;;;5027386;28;20480;-76
2023/04/05 09:56:26;;;;;;;1.50;0.90;;;15.00;71.00;;;;;;5010570;28;20767;-76
2023/04/05 09:59:00;;;;;;;2.03;1.70;;;15.30;69.70;;;;;;5025327;28;20837;-76
2023/04/05 10:01:28;;;;;;;1.50;0.90;;;15.40;69.90;;;;;;5015342;28;20490;-75
2023/04/05 10:03:56;;;;;;;1.43;0.90;;;15.60;70.40;;;;;;5018119;28;20483;-76
2023/04/05 10:06:23;;;;;;;1.47;0.90;;;15.70;68.80;;;;;;5016699;28;20471;-75
2023/04/05 10:08:51;;;;;;;1.50;1.00;;;15.80;69.40;;;;;;5027203;28;20460;-76
2023/04/05 10:11:18;;;;;;;1.40;1.00;;;15.80;69.00;;;;;;5009589;28;20475;-75
2023/04/05 10:13:46;;;;;;;1.47;0.90;;;15.90;68.90;;;;;;5019745;28;20490;-78
2023/04/05 10:16:21;;;;;;;1.43;0.90;;;16.20;68.20;;;;;;5009264;28;20477;-75
2023/04/05 10:18:51;;;;;;;1.47;1.00;;;16.30;67.20;;;;;;5025097;28;20513;-76
2023/04/05 10:21:22;;;;;;;1.47;0.90;;;16.30;67.00;;;;;;5008614;28;20897;-77
2023/04/05 10:24:01;;;;;;;1.43;0.90;;;16.40;67.90;;;;;;5024563;28;20471;-77
2023/04/05 10:26:36;;;;;;;1.47;1.00;;;16.60;67.70;;;;;;5012813;28;20479;-75
2023/04/05 10:29:09;;;;;;;1.47;0.90;;;16.60;66.30;;;;;;5030050;28;20455;-76
2023/04/05 10:31:45;;;;;;;1.50;1.00;;;16.50;66.70;;;;;;5011786;28;20480;-74
2023/04/05 10:34:20;;;;;;;1.50;1.00;;;16.70;67.50;;;;;;5018562;28;20577;-74
2023/04/05 10:36:50;;;;;;;1.50;0.90;;;16.90;67.20;;;;;;5009784;28;21029;-74
2023/04/05 10:39:23;;;;;;;1.43;0.90;;;17.00;65.70;;;;;;5025927;28;20822;-74
2023/04/05 10:41:56;;;;;;;1.50;0.90;;;17.20;65.20;;;;;;5015882;28;20862;-73
2023/04/05 10:44:23;;;;;;;1.50;1.00;;;17.00;64.70;;;;;;5013823;28;20555;-74
2023/04/05 10:46:53;;;;;;;1.43;0.90;;;16.90;66.20;;;;;;5017110;28;20483;-73
2023/04/05 10:49:27;;;;;;;1.50;0.90;;;17.00;64.90;;;;;;5025454;28;20491;-74
2023/04/05 10:51:55;;;;;;;1.47;0.90;;;17.00;65.40;;;;;;5008307;28;20927;-74
2023/04/05 10:54:22;;;;;;;1.47;1.00;;;17.20;63.70;;;;;;5014888;28;20849;-73
2023/04/05 10:56:50;;;;;;;1.50;0.90;;;17.40;66.80;;;;;;5018966;28;20478;-73
2023/04/05 10:59:17;;;;;;;1.50;0.90;;;17.40;65.40;;;;;;5023131;28;21018;-73
2023/04/05 11:01:46;;;;;;;1.50;0.90;;;17.20;62.20;;;;;;5011032;28;20666;-74
2023/04/05 11:04:15;;;;;;;1.47;0.90;;;16.90;63.60;;;;;;5017308;28;20731;-73
2023/04/05 11:06:46;;;;;;;1.47;0.90;;;16.90;62.00;;;;;;5004978;28;20509;-73
2023/04/05 11:09:16;;;;;;;1.50;1.00;;;17.00;65.10;;;;;;5021075;28;20499;-73
2023/04/05 11:11:44;;;;;;;1.43;0.90;;;17.00;64.30;;;;;;5004603;28;20479;-74
2023/04/05 11:14:19;;;;;;;1.47;0.97;;;16.90;63.90;;;;;;5016411;28;20834;-73
2023/04/05 11:16:48;;;;;;;1.43;1.00;;;16.80;63.80;;;;;;5004144;28;20537;-74
2023/04/05 11:19:18;;;;;;;1.57;1.10;;;16.80;63.50;;;;;;5017967;28;20463;-73
2023/04/05 11:21:44;;;;;;;1.43;1.00;;;16.90;63.80;;;;;;5016086;28;21007;-74
2023/04/05 11:24:14;;;;;;;1.47;0.90;;;16.90;65.30;;;;;;5021268;28;20852;-75
2023/04/05 11:26:54;;;;;;;1.47;0.90;;;17.10;63.50;;;;;;5011839;28;20546;-75
2023/04/05 11:29:47;;;;;;;1.47;0.90;;;17.10;63.30;;;;;;5026163;28;20562;-75
2023/04/05 11:32:14;;;;;;;1.50;0.90;;;17.10;63.40;;;;;;5003071;28;20618;-74
2023/04/05 11:34:44;;;;;;;1.43;0.90;;;17.20;63.10;;;;;;5015449;28;20460;-75
2023/04/05 11:37:10;;;;;;;1.43;0.90;;;17.30;62.70;;;;;;5005590;28;20480;-75
2023/04/05 11:39:40;;;;;;;1.43;0.90;;;17.30;60.80;;;;;;5012370;28;20835;-74
2023/04/05 11:42:11;;;;;;;1.47;1.00;;;17.00;61.70;;;;;;5007034;28;20869;-75
2023/04/05 11:44:51;;;;;;;1.50;1.10;;;16.90;62.80;;;;;;5017577;28;20467;-74
2023/04/05 11:47:20;;;;;;;1.50;0.90;;;16.60;62.70;;;;;;5017262;28;20992;-75
2023/04/05 11:49:52;;;;;;;1.47;1.00;;;16.40;62.90;;;;;;5018757;28;20463;-74
2023/04/05 11:55:01;;;;;;;1.43;0.90;;;15.90;62.60;;;;;;5021656;28;20469;-74
2023/04/05 11:57:28;;;;;;;1.47;0.90;;;16.20;66.20;;;;;;5021035;28;20565;-75
2023/04/05 11:59:55;;;;;;;1.47;0.90;;;16.60;64.40;;;;;;5018025;28;20780;-75
2023/04/05 12:02:22;;;;;;;1.50;1.00;;;16.80;64.20;;;;;;5017049;28;20481;-75
2023/04/05 12:04:56;;;;;;;1.50;1.00;;;17.00;65.20;;;;;;5019283;28;20992;-75
2023/04/05 12:07:26;;;;;;;1.47;0.93;;;17.30;64.00;;;;;;5009769;28;20502;-75
2023/04/05 12:10:07;;;;;;;1.47;0.90;;;17.60;64.30;;;;;;5014430;28;20471;-75
2023/04/05 12:12:37;;;;;;;1.50;0.90;;;17.70;62.40;;;;;;5007591;28;20553;-75
2023/04/05 12:15:07;;;;;;;1.47;0.90;;;17.70;62.70;;;;;;5012863;28;20490;-75
2023/04/05 12:17:48;;;;;;;1.47;0.90;;;17.70;61.50;;;;;;5020667;28;20566;-74
2023/04/05 12:20:19;;;;;;;1.50;1.00;;;17.80;61.00;;;;;;5010964;28;20459;-74
2023/04/05 12:22:48;;;;;;;1.50;0.90;;;18.00;61.70;;;;;;5017121;28;20521;-75
2023/04/05 12:25:16;;;;;;;1.50;0.90;;;18.10;59.80;;;;;;5017495;28;20466;-75
2023/04/05 12:27:43;;;;;;;1.50;1.00;;;18.10;62.00;;;;;;5011165;28;20482;-75
2023/04/05 12:30:15;;;;;;;1.50;1.00;;;18.00;61.70;;;;;;5020771;28;20464;-75
2023/04/05 12:32:46;;;;;;;1.43;0.90;;;18.00;61.40;;;;;;5010031;28;20981;-75
2023/04/05 12:35:17;;;;;;;1.50;0.93;;;17.80;60.00;;;;;;5021499;28;20458;-75
2023/04/05 12:37:44;;;;;;;1.43;0.90;;;17.20;60.80;;;;;;5026722;28;20485;-75
2023/04/05 12:40:12;;;;;;;1.47;0.90;;;17.30;60.90;;;;;;5015285;28;20487;-75
2023/04/05 12:42:40;;;;;;;1.47;0.90;;;17.50;61.20;;;;;;5011315;28;20498;-75
2023/04/05 12:45:10;;;;;;;1.43;0.90;;;17.60;62.10;;;;;;5018014;28;20962;-76
2023/04/05 12:47:48;;;;;;;1.43;0.90;;;17.90;62.50;;;;;;5008573;28;20536;-76
2023/04/05 12:50:19;;;;;;;1.47;0.90;;;18.10;63.10;;;;;;5018683;28;20470;-76
2023/04/05 12:52:56;;;;;;;1.47;0.90;;;18.10;60.40;;;;;;5020172;28;20566;-75
2023/04/05 12:55:23;;;;;;;1.47;0.90;;;18.20;59.90;;;;;;5015579;28;20819;-76
2023/04/05 12:57:52;;;;;;;1.50;0.90;;;18.40;64.00;;;;;;5015056;28;20493;-75
2023/04/05 13:00:23;;;;;;;1.47;0.90;;;18.20;59.00;;;;;;5019753;28;20849;-76
2023/04/05 13:02:52;;;;;;;1.40;0.90;;;17.80;59.50;;;;;;5020292;28;20985;-76
2023/04/05 13:05:21;;;;;;;1.47;0.90;;;17.60;61.50;;;;;;5021096;28;20463;-74